createdAt,value
2022-08-28T00:00:51.742Z,52.90
2022-08-28T00:03:20.915Z,59.72
2022-08-28T00:05:50.128Z,59.42
2022-08-28T00:08:19.402Z,55.70
2022-08-28T00:10:48.756Z,54.38
2022-08-28T00:13:21.492Z,62.55
2022-08-28T00:15:58.210Z,55.13
2022-08-28T00:18:29.396Z,60.53
2022-08-28T00:20:59.495Z,46.53
2022-08-28T00:23:42.236Z,52.70
2022-08-28T00:26:32.923Z,62.60
2022-08-28T00:29:01.257Z,47.72
2022-08-28T00:31:31.873Z,53.72
2022-08-28T00:34:03.314Z,61.40
2022-08-28T00:36:32.599Z,56.92
2022-08-28T00:39:01.904Z,51.33
2022-08-28T00:41:32.550Z,48.45
2022-08-28T00:44:11.487Z,48.13
2022-08-28T00:46:43.885Z,49.53
2022-08-28T00:49:15.866Z,48.33
2022-08-28T00:52:14.252Z,52.35
2022-08-28T00:54:59.369Z,58.30
2022-08-28T00:57:33.177Z,59.70
2022-08-28T01:00:02.602Z,57.45
2022-08-28T01:02:33.745Z,60.40
2022-08-28T01:05:03.314Z,65.00
2022-08-28T01:07:32.701Z,60.10
2022-08-28T01:10:01.682Z,65.35
2022-08-28T01:12:34.679Z,57.35
2022-08-28T01:15:11.917Z,62.85
2022-08-28T01:17:48.543Z,64.28
2022-08-28T01:20:22.956Z,66.70
2022-08-28T01:22:59.497Z,58.72
2022-08-28T01:25:35.369Z,63.35
2022-08-28T01:28:06.823Z,62.08
2022-08-28T01:30:36.351Z,68.38
2022-08-28T01:33:05.715Z,62.03
2022-08-28T01:35:36.578Z,71.82
2022-08-28T01:38:06.099Z,59.88
2022-08-28T01:40:40.235Z,62.38
2022-08-28T01:43:11.973Z,58.25
2022-08-28T01:45:42.520Z,57.85
2022-08-28T01:48:12.992Z,59.95
2022-08-28T01:50:43.233Z,66.50
2022-08-28T01:53:17.586Z,80.28
2022-08-28T01:55:49.440Z,65.80
2022-08-28T01:58:18.622Z,63.53
2022-08-28T02:00:47.948Z,58.63
2022-08-28T02:03:17.154Z,70.45
2022-08-28T02:05:46.160Z,72.78
2022-08-28T02:08:15.428Z,64.20
2022-08-28T02:10:44.834Z,63.42
2022-08-28T02:13:15.257Z,60.80
2022-08-28T02:15:45.344Z,62.10
2022-08-28T02:18:14.673Z,62.30
2022-08-28T02:20:44.161Z,60.97
2022-08-28T02:23:13.622Z,64.95
2022-08-28T02:25:42.760Z,58.13
2022-08-28T02:28:11.808Z,62.35
2022-08-28T02:30:42.438Z,57.17
2022-08-28T02:33:11.541Z,61.13
2022-08-28T02:35:42.691Z,61.50
2022-08-28T02:38:12.611Z,61.78
2022-08-28T02:40:42.508Z,64.60
2022-08-28T02:43:11.588Z,58.08
2022-08-28T02:45:42.075Z,54.42
2022-08-28T02:48:11.994Z,51.92
2022-08-28T02:50:47.262Z,54.78
2022-08-28T02:53:16.347Z,54.15
2022-08-28T02:55:45.465Z,51.78
2022-08-28T02:58:14.471Z,51.25
2022-08-28T03:00:46.196Z,50.58
2022-08-28T03:03:15.655Z,53.58
2022-08-28T03:05:44.917Z,60.70
2022-08-28T03:08:14.186Z,70.55
2022-08-28T03:10:43.291Z,54.10
2022-08-28T03:13:22.947Z,57.47
2022-08-28T03:15:58.142Z,52.35
2022-08-28T03:18:30.224Z,63.75
2022-08-28T03:20:59.181Z,52.90
2022-08-28T03:23:27.385Z,52.97
2022-08-28T03:25:58.635Z,53.08
2022-08-28T03:28:29.877Z,47.58
2022-08-28T03:31:00.521Z,44.50
2022-08-28T03:33:29.995Z,49.50
2022-08-28T03:35:59.593Z,57.63
2022-08-28T03:38:29.156Z,52.17
2022-08-28T03:40:58.231Z,49.00
2022-08-28T03:43:27.850Z,50.55
2022-08-28T03:46:01.019Z,44.33
2022-08-28T03:48:33.022Z,44.55
2022-08-28T03:51:02.501Z,46.22
2022-08-28T03:53:31.801Z,39.00
2022-08-28T03:56:00.995Z,44.75
2022-08-28T03:58:31.332Z,40.60
2022-08-28T04:01:01.834Z,37.10
2022-08-28T04:03:30.857Z,43.45
2022-08-28T04:05:59.894Z,45.53
2022-08-28T04:08:29.658Z,45.47
2022-08-28T04:11:00.978Z,41.17
2022-08-28T04:13:30.523Z,45.22
2022-08-28T04:16:02.874Z,37.25
2022-08-28T04:18:35.857Z,41.35
2022-08-28T04:21:08.046Z,37.92
2022-08-28T04:23:38.291Z,43.42
2022-08-28T04:26:08.222Z,39.78
2022-08-28T04:28:37.750Z,40.58
2022-08-28T04:31:09.316Z,46.03
2022-08-28T04:33:38.740Z,44.65
2022-08-28T04:36:11.241Z,46.67
2022-08-28T04:38:43.866Z,41.00
2022-08-28T04:41:16.301Z,42.67
2022-08-28T04:43:45.599Z,38.78
2022-08-28T04:46:16.823Z,39.22
2022-08-28T04:48:46.477Z,40.35
2022-08-28T04:51:16.335Z,34.60
2022-08-28T04:53:45.598Z,39.97
2022-08-28T04:56:16.100Z,42.25
2022-08-28T04:58:45.605Z,43.38
2022-08-28T05:01:19.711Z,38.97
2022-08-28T05:03:50.273Z,38.27
2022-08-28T05:06:19.196Z,38.33
2022-08-28T05:08:48.201Z,44.47
2022-08-28T05:11:32.771Z,38.80
2022-08-28T05:14:05.032Z,38.63
2022-08-28T05:16:43.095Z,34.70
2022-08-28T05:19:13.185Z,36.83
2022-08-28T05:21:42.872Z,39.78
2022-08-28T05:24:13.941Z,38.83
2022-08-28T05:26:43.236Z,40.50
2022-08-28T05:29:13.149Z,39.05
2022-08-28T05:31:43.714Z,40.83
2022-08-28T05:34:13.240Z,47.05
2022-08-28T05:36:42.909Z,40.53
2022-08-28T05:39:13.438Z,46.50
2022-08-28T05:41:44.509Z,37.25
2022-08-28T05:44:15.663Z,41.80
2022-08-28T05:46:48.720Z,41.10
2022-08-28T05:49:19.713Z,40.60
2022-08-28T05:51:50.190Z,42.28
2022-08-28T05:54:19.527Z,36.90
2022-08-28T05:56:48.793Z,40.33
2022-08-28T05:59:18.252Z,41.40
2022-08-28T06:01:50.529Z,41.97
2022-08-28T06:04:23.884Z,42.13
2022-08-28T06:06:53.430Z,32.67
2022-08-28T06:09:28.734Z,44.55
2022-08-28T06:12:01.703Z,37.75
2022-08-28T06:14:31.850Z,37.75
2022-08-28T06:17:03.827Z,45.15
2022-08-28T06:19:37.214Z,40.38
2022-08-28T06:22:09.669Z,45.08
2022-08-28T06:24:39.145Z,47.53
2022-08-28T06:27:08.294Z,40.05
2022-08-28T06:29:37.447Z,47.05
2022-08-28T06:32:09.183Z,41.67
2022-08-28T06:34:38.293Z,39.05
2022-08-28T06:37:08.046Z,50.47
2022-08-28T06:39:37.154Z,41.90
2022-08-28T06:42:07.006Z,47.63
2022-08-28T06:44:37.724Z,50.63
2022-08-28T06:47:08.109Z,44.85
2022-08-28T06:49:37.255Z,45.15
2022-08-28T06:52:06.261Z,44.45
2022-08-28T06:54:35.200Z,40.75
2022-08-28T06:57:06.431Z,40.65
2022-08-28T06:59:35.410Z,43.33
2022-08-28T07:02:09.019Z,43.35
2022-08-28T07:04:38.165Z,41.85
2022-08-28T07:07:07.554Z,46.15
2022-08-28T07:09:36.561Z,41.42
2022-08-28T07:12:06.836Z,48.22
2022-08-28T07:14:37.817Z,43.65
2022-08-28T07:17:08.406Z,42.63
2022-08-28T07:19:37.472Z,48.67
2022-08-28T07:22:06.543Z,44.72
2022-08-28T07:24:35.942Z,43.97
2022-08-28T07:27:05.697Z,41.60
2022-08-28T07:29:34.672Z,45.20
2022-08-28T07:32:04.134Z,39.10
2022-08-28T07:34:41.216Z,52.95
2022-08-28T07:37:14.699Z,43.13
2022-08-28T07:39:44.231Z,45.78
2022-08-28T07:42:35.652Z,42.05
2022-08-28T07:45:04.620Z,39.50
2022-08-28T07:47:33.648Z,45.70
2022-08-28T07:50:04.151Z,34.72
2022-08-28T07:52:33.164Z,38.80
2022-08-28T07:55:02.191Z,44.95
2022-08-28T07:57:32.650Z,44.50
2022-08-28T08:00:01.838Z,33.00
2022-08-28T08:02:40.357Z,38.10
2022-08-28T08:05:11.493Z,39.72
2022-08-28T08:07:43.815Z,48.43
2022-08-28T08:10:15.216Z,39.25
2022-08-28T08:12:49.640Z,35.75
2022-08-28T08:15:21.535Z,41.45
2022-08-28T08:17:50.530Z,38.90
2022-08-28T08:20:22.407Z,50.13
2022-08-28T08:22:51.402Z,37.60
2022-08-28T08:25:20.378Z,39.83
2022-08-28T08:27:49.372Z,38.83
2022-08-28T08:30:18.735Z,37.67
2022-08-28T08:32:47.731Z,39.47
2022-08-28T08:35:17.358Z,40.58
2022-08-28T08:37:47.720Z,46.25
2022-08-28T08:40:19.621Z,36.40
2022-08-28T08:42:55.748Z,39.35
2022-08-28T08:45:26.817Z,39.28
2022-08-28T08:47:57.297Z,41.97
2022-08-28T08:50:29.441Z,37.50
2022-08-28T08:53:20.288Z,33.33
2022-08-28T08:55:51.406Z,34.33
2022-08-28T08:58:28.972Z,29.90
2022-08-28T09:01:09.648Z,37.83
2022-08-28T09:03:53.721Z,31.42
2022-08-28T09:06:31.185Z,44.22
2022-08-28T09:09:07.202Z,35.25
2022-08-28T09:11:45.029Z,37.95
2022-08-28T09:14:21.722Z,30.50
2022-08-28T09:16:57.763Z,26.45
2022-08-28T09:19:26.928Z,27.52
2022-08-28T09:21:56.466Z,26.80
2022-08-28T09:24:32.038Z,22.20
2022-08-28T09:27:04.242Z,28.90
2022-08-28T09:29:35.598Z,24.52
2022-08-28T09:32:24.634Z,25.30
2022-08-28T09:35:08.457Z,23.35
2022-08-28T09:37:38.643Z,21.00
2022-08-28T09:40:22.113Z,21.80
2022-08-28T09:43:21.562Z,18.60
2022-08-28T09:45:58.444Z,21.95
2022-08-28T09:48:35.819Z,20.33
2022-08-28T09:51:07.101Z,15.63
2022-08-28T09:53:39.191Z,21.55
2022-08-28T09:56:16.679Z,17.02
2022-08-28T09:58:48.178Z,16.40
2022-08-28T10:01:31.361Z,17.38
2022-08-28T10:04:12.434Z,16.23
2022-08-28T10:06:43.503Z,16.30
2022-08-28T10:09:24.086Z,13.10
2022-08-28T10:12:05.903Z,16.58
2022-08-28T10:14:52.562Z,13.18
2022-08-28T10:17:32.300Z,15.85
2022-08-28T10:20:08.764Z,13.70
2022-08-28T10:22:50.184Z,14.52
2022-08-28T10:25:25.002Z,16.45
2022-08-28T10:28:12.555Z,18.83
2022-08-28T10:30:56.540Z,14.82
2022-08-28T10:33:41.966Z,21.48
2022-08-28T10:36:28.774Z,14.38
2022-08-28T10:39:18.824Z,19.33
2022-08-28T10:41:51.094Z,27.88
2022-08-28T10:44:27.659Z,17.95
2022-08-28T10:46:59.359Z,20.90
2022-08-28T10:49:35.427Z,20.05
2022-08-28T10:52:08.704Z,23.70
2022-08-28T10:54:44.567Z,21.50
2022-08-28T10:57:29.525Z,21.27
2022-08-28T11:02:33.584Z,19.30
2022-08-28T11:05:04.127Z,24.95
2022-08-28T11:07:38.613Z,25.65
2022-08-28T11:10:22.914Z,22.50
2022-08-28T11:12:53.581Z,26.63
2022-08-28T11:15:44.868Z,23.02
2022-08-28T11:18:48.199Z,27.40
2022-08-28T11:21:26.496Z,24.55
2022-08-28T11:24:02.367Z,21.52
2022-08-28T11:26:41.016Z,30.05
2022-08-28T11:29:10.884Z,23.50
2022-08-28T11:31:43.512Z,24.52
2022-08-28T11:34:45.375Z,27.63
2022-08-28T11:37:41.695Z,21.45
2022-08-28T11:40:22.557Z,20.92
2022-08-28T11:42:51.776Z,18.83
2022-08-28T11:45:22.999Z,19.15
2022-08-28T11:47:56.853Z,17.42
2022-08-28T11:50:32.641Z,19.63
2022-08-28T11:53:29.081Z,19.15
2022-08-28T11:56:36.963Z,22.45
2022-08-28T11:59:35.152Z,14.57
2022-08-28T12:02:43.243Z,16.63
2022-08-28T12:05:51.606Z,17.25
2022-08-28T12:09:11.861Z,18.23
2022-08-28T12:12:04.934Z,14.73
2022-08-28T12:15:11.495Z,17.98
2022-08-28T12:17:49.537Z,13.52
2022-08-28T12:20:45.784Z,16.00
2022-08-28T12:23:45.804Z,13.15
2022-08-28T12:26:25.331Z,13.15
2022-08-28T12:28:57.868Z,13.55
2022-08-28T12:32:12.968Z,13.40
2022-08-28T12:34:54.083Z,11.48
2022-08-28T12:37:39.688Z,15.80
2022-08-28T12:40:25.014Z,12.60
2022-08-28T12:42:58.330Z,11.48
2022-08-28T12:45:31.988Z,9.50
2022-08-28T12:48:04.190Z,11.05
2022-08-28T12:50:37.269Z,17.00
2022-08-28T12:53:12.953Z,12.57
2022-08-28T12:55:42.322Z,13.63
2022-08-28T12:58:15.038Z,15.77
2022-08-28T13:00:56.441Z,16.95
2022-08-28T13:03:26.101Z,9.10
2022-08-28T13:06:03.585Z,13.48
2022-08-28T13:08:35.480Z,11.07
2022-08-28T13:11:05.298Z,9.45
2022-08-28T13:13:38.201Z,6.25
2022-08-28T13:16:09.198Z,13.18
2022-08-28T13:18:45.293Z,7.47
2022-08-28T13:21:33.823Z,13.95
2022-08-28T13:24:27.550Z,13.95
2022-08-28T13:27:07.048Z,11.55
2022-08-28T13:29:36.919Z,9.80
2022-08-28T13:32:08.953Z,19.88
2022-08-28T13:34:46.050Z,13.32
2022-08-28T13:37:43.149Z,12.07
2022-08-28T13:40:38.219Z,16.23
2022-08-28T13:43:07.667Z,12.20
2022-08-28T13:45:44.021Z,12.23
2022-08-28T13:48:17.571Z,15.00
2022-08-28T13:50:48.957Z,14.18
2022-08-28T13:53:22.200Z,10.68
2022-08-28T13:55:52.679Z,9.68
2022-08-28T13:58:21.794Z,13.20
2022-08-28T14:00:51.962Z,9.63
2022-08-28T14:03:39.196Z,12.57
2022-08-28T14:06:11.749Z,10.32
2022-08-28T14:08:41.988Z,10.38
2022-08-28T14:11:14.239Z,15.05
2022-08-28T14:13:47.161Z,13.63
2022-08-28T14:16:25.334Z,10.13
2022-08-28T14:18:54.946Z,13.55
2022-08-28T14:21:24.628Z,15.85
2022-08-28T14:23:53.735Z,12.68
2022-08-28T14:26:24.205Z,18.15
2022-08-28T14:28:53.289Z,18.25
2022-08-28T14:31:26.363Z,13.43
2022-08-28T14:33:56.221Z,17.50
2022-08-28T14:36:28.926Z,12.05
2022-08-28T14:39:04.027Z,15.13
2022-08-28T14:41:37.127Z,17.25
2022-08-28T14:44:06.454Z,16.35
2022-08-28T14:46:38.087Z,21.00
2022-08-28T14:49:09.957Z,19.42
2022-08-28T14:51:42.494Z,21.40
2022-08-28T14:54:13.098Z,18.23
2022-08-28T14:56:44.365Z,20.88
2022-08-28T14:59:21.879Z,21.02
2022-08-28T15:01:55.298Z,23.38
2022-08-28T15:04:26.205Z,22.40
2022-08-28T15:06:59.360Z,21.33
2022-08-28T15:09:29.308Z,20.77
2022-08-28T15:11:59.861Z,18.33
2022-08-28T15:14:30.535Z,23.75
2022-08-28T15:16:59.672Z,22.75
2022-08-28T15:19:30.105Z,18.20
2022-08-28T15:21:59.941Z,31.70
2022-08-28T15:24:31.582Z,22.52
2022-08-28T15:27:02.016Z,23.00
2022-08-28T15:29:31.133Z,22.17
2022-08-28T15:32:01.653Z,24.65
2022-08-28T15:34:31.281Z,22.70
2022-08-28T15:37:01.626Z,22.00
2022-08-28T15:39:50.539Z,26.27
2022-08-28T15:42:21.103Z,28.88
2022-08-28T15:44:50.100Z,33.85
2022-08-28T15:47:19.084Z,26.80
2022-08-28T15:49:54.805Z,30.50
2022-08-28T15:52:25.377Z,31.30
2022-08-28T15:54:55.382Z,27.15
2022-08-28T15:57:25.793Z,30.33
2022-08-28T15:59:54.761Z,26.88
2022-08-28T16:02:25.603Z,36.17
2022-08-28T16:04:55.737Z,33.80
2022-08-28T16:07:25.172Z,35.00
2022-08-28T16:09:54.624Z,32.13
2022-08-28T16:12:23.672Z,49.13
2022-08-28T16:14:54.454Z,38.53
2022-08-28T16:17:23.397Z,46.85
2022-08-28T16:19:52.347Z,50.05
2022-08-28T16:22:21.962Z,47.28
2022-08-28T16:24:51.829Z,48.05
2022-08-28T16:27:21.547Z,52.67
2022-08-28T16:29:52.907Z,46.80
2022-08-28T16:32:24.038Z,60.67
2022-08-28T16:34:54.812Z,54.75
2022-08-28T16:37:23.857Z,62.42
2022-08-28T16:39:56.170Z,72.47
2022-08-28T16:42:27.661Z,69.22
2022-08-28T16:47:31.479Z,68.50
2022-08-28T16:50:04.423Z,77.05
2022-08-28T16:52:33.598Z,85.60
2022-08-28T16:55:03.024Z,79.07
2022-08-28T16:57:32.328Z,74.22
2022-08-28T17:00:01.548Z,82.55
2022-08-28T17:02:34.191Z,76.22
2022-08-28T17:05:05.188Z,77.97
2022-08-28T17:07:35.123Z,84.72
2022-08-28T17:10:05.278Z,83.55
2022-08-28T17:12:34.460Z,96.43
2022-08-28T17:15:03.686Z,89.72
2022-08-28T17:17:34.511Z,98.88
2022-08-28T17:20:05.079Z,91.03
2022-08-28T17:22:33.171Z,93.78
2022-08-28T17:25:04.405Z,88.38
2022-08-28T17:27:33.632Z,84.57
2022-08-28T17:30:05.010Z,85.13
2022-08-28T17:32:36.215Z,97.50
2022-08-28T17:35:06.577Z,94.60
2022-08-28T17:37:38.550Z,92.85
2022-08-28T17:40:10.650Z,84.07
2022-08-28T17:42:39.905Z,87.97
2022-08-28T17:45:11.043Z,80.90
2022-08-28T17:47:41.767Z,95.85
2022-08-28T17:50:13.063Z,93.90
2022-08-28T17:52:42.193Z,94.85
2022-08-28T17:55:11.490Z,96.85
2022-08-28T17:57:40.778Z,91.55
2022-08-28T18:00:13.264Z,82.00
2022-08-28T18:02:43.855Z,89.38
2022-08-28T18:05:14.562Z,86.22
2022-08-28T18:07:43.898Z,94.57
2022-08-28T18:10:13.723Z,87.18
2022-08-28T18:12:43.561Z,98.40
2022-08-28T18:15:13.740Z,93.10
2022-08-28T18:17:48.118Z,99.28
2022-08-28T18:20:17.707Z,92.75
2022-08-28T18:22:46.893Z,82.97
2022-08-28T18:25:30.647Z,92.47
2022-08-28T18:27:59.721Z,95.20
2022-08-28T18:30:29.144Z,97.45
2022-08-28T18:32:59.959Z,86.47
2022-08-28T18:35:31.772Z,82.55
2022-08-28T18:38:01.998Z,96.85
2022-08-28T18:40:31.618Z,94.78
2022-08-28T18:43:01.053Z,95.78
2022-08-28T18:45:31.577Z,83.80
2022-08-28T18:48:02.994Z,78.25
2022-08-28T18:50:33.044Z,78.50
2022-08-28T18:53:02.372Z,65.35
2022-08-28T18:55:32.849Z,65.85
2022-08-28T18:58:03.006Z,62.38
2022-08-28T19:00:32.724Z,75.82
2022-08-28T19:03:03.343Z,64.03
2022-08-28T19:05:33.628Z,62.53
2022-08-28T19:08:02.816Z,58.22
2022-08-28T19:10:34.392Z,63.35
2022-08-28T19:13:05.278Z,64.32
2022-08-28T19:15:36.116Z,63.42
2022-08-28T19:18:07.545Z,58.95
2022-08-28T19:20:37.042Z,58.55
2022-08-28T19:23:06.610Z,58.08
2022-08-28T19:25:36.419Z,55.50
2022-08-28T19:28:06.055Z,55.95
2022-08-28T19:30:35.784Z,54.08
2022-08-28T19:33:07.394Z,57.95
2022-08-28T19:35:36.742Z,51.05
2022-08-28T19:38:06.074Z,59.00
2022-08-28T19:40:35.699Z,56.28
2022-08-28T19:43:05.920Z,57.88
2022-08-28T19:45:35.788Z,54.17
2022-08-28T19:48:05.314Z,52.47
2022-08-28T19:50:35.976Z,51.08
2022-08-28T19:53:06.216Z,58.55
2022-08-28T19:55:35.904Z,56.17
2022-08-28T19:58:06.729Z,49.72
2022-08-28T20:00:36.983Z,52.92
2022-08-28T20:03:06.521Z,46.97
2022-08-28T20:05:38.208Z,47.40
2022-08-28T20:08:07.842Z,52.80
2022-08-28T20:10:39.257Z,52.03
2022-08-28T20:13:08.632Z,47.67
2022-08-28T20:15:38.216Z,46.00
2022-08-28T20:18:08.561Z,49.65
2022-08-28T20:20:39.869Z,43.22
2022-08-28T20:23:09.668Z,43.78
2022-08-28T20:25:40.604Z,53.78
2022-08-28T20:28:09.781Z,42.10
2022-08-28T20:30:39.898Z,48.97
2022-08-28T20:33:08.891Z,45.67
2022-08-28T20:35:39.393Z,43.97
2022-08-28T20:38:11.310Z,39.85
2022-08-28T20:40:40.423Z,44.88
2022-08-28T20:43:09.491Z,54.65
2022-08-28T20:45:38.478Z,38.53
2022-08-28T20:48:07.526Z,38.47
2022-08-28T20:50:36.648Z,52.08
2022-08-28T20:53:07.101Z,34.45
2022-08-28T20:55:36.112Z,41.85
2022-08-28T20:58:05.149Z,37.53
2022-08-28T21:00:34.313Z,39.28
2022-08-28T21:03:03.382Z,39.15
2022-08-28T21:05:32.946Z,38.47
2022-08-28T21:08:02.351Z,35.03
2022-08-28T21:10:33.300Z,37.47
2022-08-28T21:13:03.156Z,31.27
2022-08-28T21:15:33.200Z,39.17
2022-08-28T21:18:03.600Z,33.53
2022-08-28T21:20:32.815Z,34.58
2022-08-28T21:23:02.243Z,32.88
2022-08-28T21:25:32.641Z,37.45
2022-08-28T21:28:04.440Z,35.28
2022-08-28T21:30:34.340Z,34.85
2022-08-28T21:33:03.462Z,31.38
2022-08-28T21:35:32.965Z,33.70
2022-08-28T21:38:01.955Z,28.70
2022-08-28T21:40:32.744Z,36.03
2022-08-28T21:43:01.836Z,39.33
2022-08-28T21:45:30.891Z,38.97
2022-08-28T21:47:59.894Z,39.63
2022-08-28T21:50:29.248Z,42.33
2022-08-28T21:52:58.272Z,39.90
2022-08-28T21:55:27.257Z,41.30
2022-08-28T21:57:57.586Z,36.08
2022-08-28T22:00:26.715Z,37.67
2022-08-28T22:02:56.072Z,40.20
2022-08-28T22:05:25.284Z,40.03
2022-08-28T22:07:54.242Z,41.78
2022-08-28T22:10:23.575Z,32.80
2022-08-28T22:12:52.530Z,38.33
2022-08-28T22:15:23.048Z,40.63
2022-08-28T22:17:52.143Z,41.05
2022-08-28T22:20:21.227Z,39.13
2022-08-28T22:23:07.382Z,41.45
2022-08-28T22:25:40.871Z,37.83
2022-08-28T22:28:11.326Z,45.17
2022-08-28T22:30:41.944Z,43.03
2022-08-28T22:33:11.241Z,37.67
2022-08-28T22:35:41.016Z,39.05
2022-08-28T22:38:11.223Z,41.47
2022-08-28T22:40:40.267Z,40.17
2022-08-28T22:43:09.231Z,40.45
2022-08-28T22:45:38.209Z,34.35
2022-08-28T22:48:08.719Z,39.53
2022-08-28T22:50:37.832Z,38.92
2022-08-28T22:53:06.855Z,40.53
2022-08-28T22:55:40.127Z,47.25
2022-08-28T22:58:14.449Z,42.00
2022-08-28T23:00:43.806Z,54.30
2022-08-28T23:03:14.297Z,50.28
2022-08-28T23:05:43.574Z,46.83
2022-08-28T23:08:12.570Z,49.22
2022-08-28T23:10:58.687Z,53.80
2022-08-28T23:13:28.794Z,55.40
2022-08-28T23:15:57.974Z,52.00
2022-08-28T23:18:28.731Z,46.42
2022-08-28T23:20:58.690Z,45.63
2022-08-28T23:23:27.905Z,40.65
2022-08-28T23:25:57.010Z,43.20
2022-08-28T23:28:25.995Z,38.65
2022-08-28T23:30:55.001Z,40.33
2022-08-28T23:33:24.281Z,34.88
2022-08-28T23:35:58.840Z,40.97
2022-08-28T23:41:02.655Z,36.40
2022-08-28T23:43:31.841Z,38.50
2022-08-28T23:46:01.373Z,32.42
2022-08-28T23:48:32.155Z,29.52
2022-08-28T23:51:02.457Z,33.55
2022-08-28T23:53:31.707Z,37.10
2022-08-28T23:56:05.079Z,38.15
2022-08-28T23:58:34.690Z,30.33
